Graysville, Missouri
Current Conditions -  °F | °C
As of 10:10 AM on Saturday 20 Dec 2014 (Local Time) from KTVK Reporting Station
Moderate Fog Moderate Fog  
Wind Chill: 32°   Ceiling: 100
Heat Index: 32°   Visibility: 0.25mi
Dew Point: 32°   Wind: 3mph
Humidity: 100%   Direction: 170°S
Pressure: 30.21"   Gusts: NA
Location:  40.4961°N, 92.9907°W
Report Text: KTVK 201610Z AUTO 17003KT 1/4SM FG OVC001 00/00 A3021 RMK AO2
Loading
Personal Weather Stations






























Interactive Weather Map New forecast layout! Learn more

10-Day Weather Forecast

Advertisements
Track Severe Weather on mobile